createdAt,value
2018-07-09T00:01:26.001Z,4.73
2018-07-09T00:03:56.117Z,6.53
2018-07-09T00:06:26.129Z,6.77
2018-07-09T00:08:56.470Z,6.80
2018-07-09T00:11:26.486Z,7.63
2018-07-09T00:13:56.489Z,8.33
2018-07-09T00:16:26.511Z,7.33
2018-07-09T00:18:56.445Z,7.77
2018-07-09T00:21:26.450Z,7.10
2018-07-09T00:23:57.077Z,4.67
2018-07-09T00:26:27.095Z,6.83
2018-07-09T00:28:57.116Z,6.13
2018-07-09T00:31:27.009Z,6.07
2018-07-09T00:33:57.130Z,7.57
2018-07-09T00:36:27.148Z,6.10
2018-07-09T00:38:57.176Z,5.50
2018-07-09T00:41:27.086Z,8.07
2018-07-09T00:43:57.009Z,7.30
2018-07-09T00:46:27.131Z,7.47
2018-07-09T00:48:57.133Z,6.77
2018-07-09T00:51:26.850Z,8.43
2018-07-09T00:53:56.451Z,7.07
2018-07-09T00:56:26.581Z,6.90
2018-07-09T00:58:56.575Z,9.67
2018-07-09T01:01:26.600Z,8.63
2018-07-09T01:03:56.511Z,9.97
2018-07-09T01:06:26.629Z,6.40
2018-07-09T01:08:56.655Z,8.57
2018-07-09T01:11:30.459Z,5.80
2018-07-09T01:14:00.487Z,10.00
2018-07-09T01:16:30.386Z,6.07
2018-07-09T01:19:00.086Z,8.93
2018-07-09T01:21:30.118Z,9.47
2018-07-09T01:24:00.137Z,9.43
2018-07-09T01:26:30.140Z,6.83
2018-07-09T01:29:00.166Z,6.93
2018-07-09T01:31:29.969Z,6.43
2018-07-09T01:33:59.794Z,8.63
2018-07-09T01:36:29.688Z,7.53
2018-07-09T01:38:59.711Z,6.67
2018-07-09T01:41:29.615Z,8.77
2018-07-09T01:43:59.459Z,8.23
2018-07-09T01:46:29.470Z,9.13
2018-07-09T01:48:59.565Z,8.90
2018-07-09T01:51:29.594Z,8.17
2018-07-09T01:53:59.425Z,6.93
2018-07-09T01:56:29.420Z,7.80
2018-07-09T01:58:59.655Z,8.70
2018-07-09T02:01:29.752Z,9.27
2018-07-09T02:03:59.588Z,7.13
2018-07-09T02:06:29.588Z,6.57
2018-07-09T02:08:59.501Z,10.17
2018-07-09T02:11:29.408Z,8.90
2018-07-09T02:13:59.444Z,12.57
2018-07-09T02:16:29.568Z,8.23
2018-07-09T02:18:59.772Z,11.97
2018-07-09T02:21:29.682Z,6.90
2018-07-09T02:23:59.607Z,8.90
2018-07-09T02:26:30.028Z,9.27
2018-07-09T02:29:00.355Z,8.63
2018-07-09T02:31:30.484Z,9.80
2018-07-09T02:34:00.591Z,8.47
2018-07-09T02:36:30.698Z,9.67
2018-07-09T02:39:01.144Z,8.80
2018-07-09T02:41:31.561Z,6.20
2018-07-09T02:44:02.108Z,9.33
2018-07-09T02:46:32.111Z,6.57
2018-07-09T02:49:02.248Z,7.87
2018-07-09T02:51:32.139Z,10.33
2018-07-09T02:54:02.050Z,11.43
2018-07-09T02:56:32.180Z,9.07
2018-07-09T02:59:02.001Z,8.80
2018-07-09T03:01:32.101Z,6.97
2018-07-09T03:04:02.127Z,10.43
2018-07-09T03:06:32.027Z,9.10
2018-07-09T03:09:02.240Z,9.00
2018-07-09T03:11:32.572Z,7.93
2018-07-09T03:14:02.591Z,9.27
2018-07-09T03:16:32.495Z,8.03
2018-07-09T03:19:02.163Z,8.43
2018-07-09T03:21:32.135Z,10.03
2018-07-09T03:24:02.241Z,7.97
2018-07-09T03:26:33.510Z,7.97
2018-07-09T03:29:03.517Z,10.37
2018-07-09T03:31:33.638Z,13.80
2018-07-09T03:34:03.570Z,8.57
2018-07-09T03:36:33.875Z,8.70
2018-07-09T03:39:04.819Z,10.33
2018-07-09T03:41:35.158Z,10.90
2018-07-09T03:44:05.054Z,9.37
2018-07-09T03:46:35.150Z,12.17
2018-07-09T03:49:05.400Z,9.77
2018-07-09T03:51:36.135Z,10.87
2018-07-09T03:54:06.457Z,11.87
2018-07-09T03:56:36.460Z,10.23
2018-07-09T03:59:06.813Z,9.57
2018-07-09T04:01:37.237Z,9.53
2018-07-09T04:04:07.140Z,9.97
2018-07-09T04:06:37.179Z,10.53
2018-07-09T04:09:07.170Z,10.50
2018-07-09T04:11:37.183Z,10.47
2018-07-09T04:14:07.209Z,9.17
2018-07-09T04:16:37.421Z,8.33
2018-07-09T04:19:07.315Z,8.37
2018-07-09T04:21:37.666Z,14.60
2018-07-09T04:24:07.779Z,6.60
2018-07-09T04:26:38.250Z,9.83
2018-07-09T04:29:08.431Z,11.70
2018-07-09T04:31:38.587Z,13.17
2018-07-09T04:34:08.515Z,9.30
2018-07-09T04:36:38.470Z,9.43
2018-07-09T04:39:09.197Z,9.93
2018-07-09T04:41:39.633Z,10.60
2018-07-09T04:44:09.634Z,10.30
2018-07-09T04:46:40.088Z,10.50
2018-07-09T04:49:10.503Z,12.40
2018-07-09T04:51:40.417Z,10.27
2018-07-09T04:54:10.635Z,10.37
2018-07-09T04:56:40.662Z,10.07
2018-07-09T04:59:11.080Z,10.17
2018-07-09T05:01:40.982Z,10.10
2018-07-09T05:04:11.522Z,12.00
2018-07-09T05:06:41.837Z,10.13
2018-07-09T05:09:12.244Z,11.17
2018-07-09T05:11:42.593Z,12.77
2018-07-09T05:14:13.228Z,9.90
2018-07-09T05:16:43.256Z,9.73
2018-07-09T05:19:13.468Z,10.43
2018-07-09T05:21:43.172Z,12.93
2018-07-09T05:24:13.577Z,12.43
2018-07-09T05:26:44.017Z,9.90
2018-07-09T05:29:21.919Z,10.13
2018-07-09T05:31:55.240Z,9.73
2018-07-09T05:34:25.740Z,12.53
2018-07-09T05:36:55.669Z,14.37
2018-07-09T05:39:25.979Z,9.93
2018-07-09T05:41:56.108Z,10.23
2018-07-09T05:44:26.130Z,13.27
2018-07-09T05:46:56.458Z,9.00
2018-07-09T05:49:26.754Z,8.53
2018-07-09T05:51:59.132Z,10.10
2018-07-09T05:54:30.470Z,13.83
2018-07-09T05:57:00.286Z,12.63
2018-07-09T05:59:30.244Z,12.20
2018-07-09T06:02:00.115Z,11.50
2018-07-09T06:04:30.152Z,10.30
2018-07-09T06:07:00.451Z,7.80
2018-07-09T06:09:30.379Z,8.40
2018-07-09T06:12:00.077Z,8.00
2018-07-09T06:14:29.792Z,6.30
2018-07-09T06:17:00.106Z,9.83
2018-07-09T06:19:30.153Z,12.87
2018-07-09T06:22:00.041Z,8.30
2018-07-09T06:24:30.456Z,8.10
2018-07-09T06:27:00.990Z,8.43
2018-07-09T06:29:31.005Z,8.80
2018-07-09T06:32:01.028Z,11.70
2018-07-09T06:34:31.451Z,7.37
2018-07-09T06:37:03.004Z,10.07
2018-07-09T06:39:33.019Z,7.07
2018-07-09T06:42:03.388Z,7.13
2018-07-09T06:44:33.618Z,7.77
2018-07-09T06:47:03.899Z,8.23
2018-07-09T06:49:34.632Z,7.53
2018-07-09T06:52:05.055Z,7.43
2018-07-09T06:54:34.344Z,5.77
2018-07-09T06:57:05.700Z,8.00
2018-07-09T06:59:38.085Z,7.43
2018-07-09T07:02:08.082Z,6.67
2018-07-09T07:04:38.413Z,8.60
2018-07-09T07:07:08.635Z,4.93
2018-07-09T07:09:38.127Z,7.03
2018-07-09T07:12:08.049Z,6.13
2018-07-09T07:14:37.971Z,6.47
2018-07-09T07:17:07.775Z,4.83
2018-07-09T07:19:38.094Z,5.70
2018-07-09T07:22:07.820Z,8.27
2018-07-09T07:24:37.715Z,7.43
2018-07-09T07:27:07.843Z,7.27
2018-07-09T07:29:37.454Z,5.70
2018-07-09T07:32:08.283Z,7.90
2018-07-09T07:34:39.958Z,6.60
2018-07-09T07:37:10.199Z,5.03
2018-07-09T07:39:39.979Z,7.30
2018-07-09T07:42:09.676Z,6.23
2018-07-09T07:44:39.294Z,9.00
2018-07-09T07:47:08.686Z,5.60
2018-07-09T07:49:38.505Z,7.00
2018-07-09T07:52:08.516Z,8.80
2018-07-09T07:54:38.634Z,7.00
2018-07-09T07:57:08.360Z,5.53
2018-07-09T07:59:38.052Z,11.57
2018-07-09T08:02:07.555Z,5.10
2018-07-09T08:04:37.573Z,5.00
2018-07-09T08:07:07.182Z,8.30
2018-07-09T08:09:36.907Z,6.63
2018-07-09T08:13:00.560Z,7.23
2018-07-09T08:14:36.614Z,6.27
2018-07-09T08:17:06.028Z,4.40
2018-07-09T08:19:36.127Z,4.37
2018-07-09T08:22:06.179Z,4.57
2018-07-09T08:24:36.071Z,4.77
2018-07-09T08:27:05.984Z,5.00
2018-07-09T08:29:35.608Z,4.77
2018-07-09T08:32:05.717Z,7.47
2018-07-09T08:34:35.207Z,2.97
2018-07-09T08:37:05.023Z,4.47
2018-07-09T08:39:34.634Z,3.47
2018-07-09T08:42:04.228Z,3.60
2018-07-09T08:44:33.549Z,4.53
2018-07-09T08:47:03.242Z,5.13
2018-07-09T08:49:32.954Z,5.80
2018-07-09T08:52:02.561Z,4.20
2018-07-09T08:54:32.477Z,4.83
2018-07-09T08:57:02.491Z,5.27
2018-07-09T08:59:31.897Z,4.23
2018-07-09T09:02:01.909Z,3.53
2018-07-09T09:04:31.532Z,2.83
2018-07-09T09:07:01.124Z,3.60
2018-07-09T09:09:30.950Z,3.30
2018-07-09T09:12:00.555Z,2.87
2018-07-09T09:14:31.170Z,5.17
2018-07-09T09:17:00.576Z,3.77
2018-07-09T09:19:30.078Z,6.07
2018-07-09T09:21:59.691Z,3.97
2018-07-09T09:24:29.396Z,3.20
2018-07-09T09:26:59.106Z,3.63
2018-07-09T09:29:28.720Z,4.77
2018-07-09T09:31:58.215Z,6.17
2018-07-09T09:34:27.618Z,4.63
2018-07-09T09:36:57.329Z,4.97
2018-07-09T09:39:26.626Z,4.00
2018-07-09T09:41:55.934Z,3.47
2018-07-09T09:44:25.342Z,4.73
2018-07-09T09:46:54.629Z,3.80
2018-07-09T09:49:24.256Z,4.77
2018-07-09T09:51:54.224Z,4.30
2018-07-09T09:54:23.879Z,3.43
2018-07-09T09:56:53.680Z,3.83
2018-07-09T09:59:23.176Z,3.50
2018-07-09T10:01:52.596Z,4.60
2018-07-09T10:04:22.495Z,5.60
2018-07-09T10:06:51.908Z,4.30
2018-07-09T10:09:21.499Z,3.87
2018-07-09T10:11:51.622Z,4.20
2018-07-09T10:14:21.228Z,5.07
2018-07-09T10:16:50.654Z,4.23
2018-07-09T10:19:20.458Z,3.73
2018-07-09T10:21:50.058Z,5.13
2018-07-09T10:24:19.762Z,3.10
2018-07-09T10:26:49.672Z,2.97
2018-07-09T10:29:19.082Z,4.33
2018-07-09T10:31:49.099Z,2.90
2018-07-09T10:34:18.490Z,3.73
2018-07-09T10:36:48.019Z,4.80
2018-07-09T10:39:17.198Z,3.67
2018-07-09T10:41:47.020Z,4.33
2018-07-09T10:44:16.723Z,4.37
2018-07-09T10:46:46.539Z,5.07
2018-07-09T10:49:16.036Z,4.40
2018-07-09T10:51:45.744Z,4.13
2018-07-09T10:54:15.359Z,6.87
2018-07-09T10:56:45.158Z,3.43
2018-07-09T10:59:15.224Z,4.90
2018-07-09T11:01:45.224Z,5.50
2018-07-09T11:04:14.805Z,4.23
2018-07-09T11:06:44.201Z,5.23
2018-07-09T11:09:14.019Z,4.40
2018-07-09T11:11:43.736Z,3.10
2018-07-09T11:14:13.852Z,2.60
2018-07-09T11:16:43.654Z,2.50
2018-07-09T11:19:19.097Z,3.40
2018-07-09T11:21:48.603Z,3.83
2018-07-09T11:24:18.439Z,2.53
2018-07-09T11:26:48.736Z,2.07
2018-07-09T11:29:19.076Z,1.97
2018-07-09T11:31:48.873Z,4.63
2018-07-09T11:34:18.685Z,3.17
2018-07-09T11:36:47.998Z,2.93
2018-07-09T11:39:18.005Z,3.33
2018-07-09T11:41:47.923Z,2.73
2018-07-09T11:44:18.155Z,3.33
2018-07-09T11:46:48.669Z,2.30
2018-07-09T11:49:19.119Z,2.60
2018-07-09T11:51:49.228Z,2.90
2018-07-09T11:54:18.614Z,2.40
2018-07-09T11:56:48.324Z,3.97
2018-07-09T11:59:18.854Z,2.90
2018-07-09T12:01:48.770Z,2.90
2018-07-09T12:04:18.990Z,2.83
2018-07-09T12:06:49.439Z,3.83
2018-07-09T12:09:19.438Z,4.50
2018-07-09T12:11:49.359Z,2.60
2018-07-09T12:14:20.590Z,2.80
2018-07-09T12:16:50.607Z,3.47
2018-07-09T12:19:20.829Z,3.77
2018-07-09T12:21:50.740Z,2.97
2018-07-09T12:24:20.766Z,2.80
2018-07-09T12:26:50.379Z,4.40
2018-07-09T12:29:23.146Z,3.13
2018-07-09T12:31:52.868Z,3.97
2018-07-09T12:34:24.200Z,4.00
2018-07-09T12:36:56.377Z,3.83
2018-07-09T12:39:26.086Z,5.13
2018-07-09T12:41:55.796Z,3.83
2018-07-09T12:44:25.809Z,2.33
2018-07-09T12:46:56.330Z,4.50
2018-07-09T12:49:27.072Z,3.07
2018-07-09T12:51:57.238Z,4.07
2018-07-09T12:54:27.420Z,3.70
2018-07-09T12:56:57.119Z,6.03
2018-07-09T12:59:27.132Z,2.37
2018-07-09T13:01:57.241Z,4.10
2018-07-09T13:04:27.370Z,3.20
2018-07-09T13:06:57.046Z,4.17
2018-07-09T13:09:26.488Z,3.27
2018-07-09T13:11:56.195Z,1.93
2018-07-09T13:14:25.824Z,3.43
2018-07-09T13:16:55.619Z,3.43
2018-07-09T13:19:25.440Z,2.80
2018-07-09T13:21:55.334Z,3.37
2018-07-09T13:24:24.941Z,2.93
2018-07-09T13:26:55.071Z,4.03
2018-07-09T13:29:25.236Z,4.73
2018-07-09T13:31:55.511Z,4.23
2018-07-09T13:34:26.034Z,3.30
2018-07-09T13:36:56.053Z,3.40
2018-07-09T13:39:26.238Z,4.83
2018-07-09T13:41:55.981Z,3.23
2018-07-09T13:44:26.248Z,2.70
2018-07-09T13:46:56.014Z,3.47
2018-07-09T13:49:26.438Z,2.47
2018-07-09T13:51:56.555Z,2.53
2018-07-09T13:54:26.646Z,2.37
2018-07-09T13:56:56.810Z,4.20
2018-07-09T13:59:26.620Z,5.27
2018-07-09T14:01:56.215Z,4.43
2018-07-09T14:04:26.027Z,3.03
2018-07-09T14:06:55.638Z,2.43
2018-07-09T14:09:25.471Z,4.73
2018-07-09T14:11:55.179Z,3.50
2018-07-09T14:14:25.074Z,4.83
2018-07-09T14:16:54.579Z,4.03
2018-07-09T14:19:28.399Z,3.40
2018-07-09T14:21:57.986Z,4.37
2018-07-09T14:24:27.589Z,2.83
2018-07-09T14:26:57.708Z,4.97
2018-07-09T14:29:27.859Z,6.60
2018-07-09T14:31:58.053Z,3.47
2018-07-09T14:34:27.575Z,3.50
2018-07-09T14:36:57.781Z,3.57
2018-07-09T14:39:27.799Z,3.37
2018-07-09T14:41:57.197Z,3.30
2018-07-09T14:44:26.598Z,3.97
2018-07-09T14:46:56.229Z,4.40
2018-07-09T14:49:25.920Z,2.97
2018-07-09T14:51:55.623Z,4.20
2018-07-09T14:54:25.139Z,3.23
2018-07-09T14:56:54.929Z,5.53
2018-07-09T14:59:24.958Z,4.23
2018-07-09T15:01:54.257Z,3.50
2018-07-09T15:04:23.554Z,3.10
2018-07-09T15:06:53.061Z,2.70
2018-07-09T15:09:23.106Z,3.03
2018-07-09T15:11:53.228Z,3.77
2018-07-09T15:14:23.539Z,2.40
2018-07-09T15:16:53.668Z,4.30
2018-07-09T15:19:23.449Z,4.60
2018-07-09T15:21:54.498Z,4.40
2018-07-09T15:24:24.222Z,4.53
2018-07-09T15:26:53.818Z,2.77
2018-07-09T15:29:23.306Z,6.73
2018-07-09T15:31:57.243Z,3.37
2018-07-09T15:34:26.839Z,3.40
2018-07-09T15:36:57.456Z,4.83
2018-07-09T15:39:27.372Z,2.67
2018-07-09T15:41:57.187Z,4.90
2018-07-09T15:44:26.688Z,2.77
2018-07-09T15:46:56.967Z,8.03
2018-07-09T15:49:26.617Z,4.27
2018-07-09T15:51:56.121Z,2.87
2018-07-09T15:54:25.840Z,4.00
2018-07-09T15:56:56.052Z,3.67
2018-07-09T15:59:25.458Z,3.77
2018-07-09T16:01:55.227Z,4.27
2018-07-09T16:04:24.787Z,3.07
2018-07-09T16:06:54.487Z,3.33
2018-07-09T16:09:24.193Z,2.47
2018-07-09T16:11:54.401Z,3.07
2018-07-09T16:14:24.112Z,2.67
2018-07-09T16:16:54.228Z,2.83
2018-07-09T16:19:24.539Z,2.67
2018-07-09T16:21:54.172Z,4.53
2018-07-09T16:24:23.580Z,2.20
2018-07-09T16:26:53.231Z,2.90
2018-07-09T16:29:24.575Z,4.27
2018-07-09T16:31:54.245Z,4.83
2018-07-09T16:34:23.742Z,5.77
2018-07-09T16:36:54.225Z,5.20
2018-07-09T16:39:23.977Z,4.37
2018-07-09T16:41:53.592Z,4.80
2018-07-09T16:44:23.230Z,4.47
2018-07-09T16:46:52.649Z,4.43
2018-07-09T16:49:22.218Z,7.03
2018-07-09T16:51:52.118Z,3.33
2018-07-09T16:54:22.139Z,4.40
2018-07-09T16:56:52.664Z,4.80
2018-07-09T16:59:22.486Z,2.97
2018-07-09T17:01:52.099Z,2.90
2018-07-09T17:04:21.894Z,4.17
2018-07-09T17:06:51.393Z,3.03
2018-07-09T17:09:20.915Z,4.03
2018-07-09T17:11:50.609Z,3.50
2018-07-09T17:14:21.036Z,3.73
2018-07-09T17:16:50.955Z,3.17
2018-07-09T17:19:21.581Z,2.70
2018-07-09T17:21:51.244Z,4.03
2018-07-09T17:24:21.406Z,2.90
2018-07-09T17:26:50.991Z,3.03
2018-07-09T17:29:20.527Z,2.90
2018-07-09T17:31:50.139Z,4.20
2018-07-09T17:34:19.838Z,3.80
2018-07-09T17:36:49.852Z,4.63
2018-07-09T17:39:20.179Z,3.20
2018-07-09T17:41:49.683Z,2.87
2018-07-09T17:44:19.705Z,4.47
2018-07-09T17:46:49.729Z,4.47
2018-07-09T17:49:20.550Z,5.97
2018-07-09T17:51:51.817Z,3.67
2018-07-09T17:54:21.611Z,5.10
2018-07-09T17:56:51.476Z,6.47
2018-07-09T17:59:21.231Z,4.50
2018-07-09T18:01:51.678Z,2.63
2018-07-09T18:04:21.689Z,4.43
2018-07-09T18:06:51.590Z,3.30
2018-07-09T18:09:21.711Z,2.80
2018-07-09T18:11:51.932Z,3.77
2018-07-09T18:14:22.057Z,3.83
2018-07-09T18:16:52.676Z,3.57
2018-07-09T18:19:22.191Z,3.67
2018-07-09T18:21:52.100Z,4.13
2018-07-09T18:24:22.111Z,4.70
2018-07-09T18:26:52.025Z,4.50
2018-07-09T18:29:22.151Z,3.57
2018-07-09T18:31:53.288Z,4.77
2018-07-09T18:34:23.419Z,7.17
2018-07-09T18:36:53.422Z,6.93
2018-07-09T18:39:23.546Z,9.37
2018-07-09T18:41:53.558Z,6.10
2018-07-09T18:44:26.859Z,7.77
2018-07-09T18:46:56.667Z,4.70
2018-07-09T18:49:26.810Z,9.97
2018-07-09T18:51:56.802Z,5.10
2018-07-09T18:54:26.227Z,5.37
2018-07-09T18:56:55.867Z,6.30
2018-07-09T18:59:25.723Z,5.83
2018-07-09T19:01:55.944Z,4.33
2018-07-09T19:04:25.775Z,9.50
2018-07-09T19:06:58.744Z,6.93
2018-07-09T19:09:29.686Z,8.27
2018-07-09T19:12:01.542Z,6.33
2018-07-09T19:14:36.383Z,5.23
2018-07-09T19:17:10.999Z,8.97
2018-07-09T19:19:45.519Z,5.07
2018-07-09T19:22:15.650Z,6.63
2018-07-09T19:24:44.730Z,6.00
2018-07-09T19:27:14.038Z,8.55
2018-07-09T19:29:43.026Z,6.00
2018-07-09T19:32:12.233Z,4.30
2018-07-09T19:34:41.437Z,7.53
2018-07-09T19:37:10.795Z,5.03
2018-07-09T19:39:39.822Z,5.43
2018-07-09T19:42:09.433Z,5.13
2018-07-09T19:44:38.738Z,4.87
2018-07-09T19:47:07.510Z,4.33
2018-07-09T19:49:37.018Z,7.53
2018-07-09T19:52:05.800Z,5.67
2018-07-09T19:54:34.696Z,6.13
2018-07-09T19:57:03.609Z,3.80
2018-07-09T19:59:32.372Z,8.40
2018-07-09T20:02:01.869Z,4.20
2018-07-09T20:04:30.452Z,4.63
2018-07-09T20:06:59.556Z,5.13
2018-07-09T20:09:32.833Z,7.70
2018-07-09T20:12:05.838Z,6.03
2018-07-09T20:14:38.612Z,4.60
2018-07-09T20:17:11.819Z,7.17
2018-07-09T20:19:40.794Z,5.90
2018-07-09T20:22:09.693Z,5.87
2018-07-09T20:24:38.677Z,4.57
2018-07-09T20:27:07.633Z,4.73
2018-07-09T20:29:36.254Z,7.03
2018-07-09T20:32:05.146Z,5.67
2018-07-09T20:34:34.438Z,6.07
2018-07-09T20:37:03.228Z,5.37
2018-07-09T20:39:32.217Z,7.30
2018-07-09T20:42:01.216Z,5.40
2018-07-09T20:44:30.110Z,6.27
2018-07-09T20:46:59.097Z,5.73
2018-07-09T20:49:27.788Z,6.07
2018-07-09T20:51:56.998Z,7.53
2018-07-09T20:54:25.870Z,7.80
2018-07-09T20:56:54.657Z,7.87
2018-07-09T20:59:23.653Z,6.40
2018-07-09T21:01:52.546Z,7.13
2018-07-09T21:04:25.441Z,8.07
2018-07-09T21:06:56.078Z,11.53
2018-07-09T21:09:26.595Z,7.93
2018-07-09T21:11:56.421Z,6.57
2018-07-09T21:14:25.102Z,6.40
2018-07-09T21:16:53.791Z,7.13
2018-07-09T21:19:22.560Z,7.80
2018-07-09T21:21:51.369Z,5.57
2018-07-09T21:24:20.056Z,6.20
2018-07-09T21:26:48.954Z,8.27
2018-07-09T21:29:17.719Z,6.13
2018-07-09T21:31:47.650Z,8.03
2018-07-09T21:34:16.930Z,5.00
2018-07-09T21:36:46.221Z,7.87
2018-07-09T21:39:15.654Z,5.40
2018-07-09T21:41:44.849Z,6.57
2018-07-09T21:44:14.116Z,8.00
2018-07-09T21:46:42.830Z,8.50
2018-07-09T21:49:11.589Z,9.50
2018-07-09T21:51:41.205Z,8.70
2018-07-09T21:54:10.208Z,10.30
2018-07-09T21:56:39.006Z,7.23
2018-07-09T21:59:07.468Z,7.87
2018-07-09T22:01:36.171Z,7.17
2018-07-09T22:04:05.161Z,7.77
2018-07-09T22:06:34.042Z,7.53
2018-07-09T22:09:02.733Z,6.47
2018-07-09T22:11:31.714Z,8.40
2018-07-09T22:14:00.910Z,6.33
2018-07-09T22:16:29.830Z,7.53
2018-07-09T22:18:58.913Z,6.73
2018-07-09T22:21:27.468Z,5.13
2018-07-09T22:23:56.590Z,5.73
2018-07-09T22:26:25.470Z,4.67
2018-07-09T22:28:54.380Z,4.47
2018-07-09T22:31:24.061Z,7.63
2018-07-09T22:33:53.555Z,5.33
2018-07-09T22:36:23.241Z,5.57
2018-07-09T22:38:53.207Z,6.57
2018-07-09T22:41:23.410Z,9.57
2018-07-09T22:43:57.633Z,6.53
2018-07-09T22:46:27.350Z,5.07
2018-07-09T22:48:57.043Z,5.13
2018-07-09T22:51:26.861Z,6.07
2018-07-09T22:53:56.583Z,6.90
2018-07-09T22:56:26.231Z,7.97
2018-07-09T22:58:56.000Z,6.37
2018-07-09T23:01:25.594Z,5.80
2018-07-09T23:03:55.233Z,6.00
2018-07-09T23:06:25.129Z,6.20
2018-07-09T23:11:39.490Z,5.93
2018-07-09T23:14:14.109Z,5.90
2018-07-09T23:16:48.748Z,5.30
2018-07-09T23:19:24.079Z,4.83
2018-07-09T23:21:58.508Z,7.40
2018-07-09T23:24:27.895Z,4.80
2018-07-09T23:26:57.228Z,4.87
2018-07-09T23:29:26.115Z,5.67
2018-07-09T23:31:54.886Z,3.73
2018-07-09T23:34:23.576Z,5.73
2018-07-09T23:36:52.559Z,4.83
2018-07-09T23:39:22.059Z,5.47
2018-07-09T23:41:50.628Z,5.37
2018-07-09T23:44:20.140Z,3.93
2018-07-09T23:46:50.062Z,5.67
2018-07-09T23:49:18.959Z,4.33
2018-07-09T23:51:47.835Z,3.60
2018-07-09T23:54:17.240Z,3.77
2018-07-09T23:56:51.232Z,5.93
2018-07-09T23:59:29.564Z,3.93
